createdAt,value
2023-03-01T00:01:25.124Z,59.21
2023-03-01T00:03:53.850Z,59.17
2023-03-01T00:06:22.321Z,59.24
2023-03-01T00:08:50.335Z,59.96
2023-03-01T00:11:21.683Z,59.72
2023-03-01T00:13:52.668Z,59.50
2023-03-01T00:16:34.802Z,59.74
2023-03-01T00:19:02.395Z,59.80
2023-03-01T00:21:30.065Z,59.58
2023-03-01T00:23:58.290Z,59.89
2023-03-01T00:26:27.184Z,60.28
2023-03-01T00:28:54.842Z,60.59
2023-03-01T00:31:25.527Z,60.37
2023-03-01T00:34:00.432Z,60.53
2023-03-01T00:36:31.414Z,61.26
2023-03-01T00:38:58.852Z,61.02
2023-03-01T00:41:29.691Z,61.55
2023-03-01T00:43:57.129Z,61.76
2023-03-01T00:46:27.895Z,61.59
2023-03-01T00:48:55.398Z,61.67
2023-03-01T00:51:29.128Z,61.37
2023-03-01T00:53:59.248Z,61.62
2023-03-01T00:56:27.615Z,61.89
2023-03-01T00:58:54.742Z,61.85
2023-03-01T01:01:28.535Z,61.67
2023-03-01T01:04:08.380Z,62.09
2023-03-01T01:06:40.803Z,61.81
2023-03-01T01:09:09.492Z,62.04
2023-03-01T01:11:40.016Z,62.34
2023-03-01T01:14:07.113Z,62.41
2023-03-01T01:16:34.516Z,62.70
2023-03-01T01:19:01.676Z,62.44
2023-03-01T01:21:29.407Z,62.52
2023-03-01T01:23:58.094Z,62.60
2023-03-01T01:26:35.383Z,62.41
2023-03-01T01:29:05.097Z,62.34
2023-03-01T01:31:33.873Z,62.69
2023-03-01T01:34:04.239Z,62.17
2023-03-01T01:36:31.886Z,62.00
2023-03-01T01:38:59.706Z,62.67
2023-03-01T01:41:29.973Z,62.85
2023-03-01T01:44:34.705Z,62.80
2023-03-01T01:47:12.838Z,62.83
2023-03-01T01:49:47.179Z,62.98
2023-03-01T01:52:32.660Z,62.72
2023-03-01T01:55:13.086Z,62.82
2023-03-01T01:57:48.384Z,62.90
2023-03-01T02:00:22.281Z,63.29
2023-03-01T02:02:58.812Z,63.15
2023-03-01T02:05:29.334Z,63.37
2023-03-01T02:07:59.380Z,63.24
2023-03-01T02:10:28.847Z,63.29
2023-03-01T02:12:57.334Z,63.50
2023-03-01T02:15:25.352Z,63.59
2023-03-01T02:17:53.429Z,63.60
2023-03-01T02:20:40.641Z,63.47
2023-03-01T02:23:08.904Z,63.34
2023-03-01T02:25:54.923Z,63.00
2023-03-01T02:28:47.767Z,63.24
2023-03-01T02:31:39.941Z,63.31
2023-03-01T02:34:08.563Z,63.19
2023-03-01T02:37:12.869Z,63.15
2023-03-01T02:39:51.754Z,63.10
2023-03-01T02:42:27.617Z,63.54
2023-03-01T02:44:54.901Z,63.46
2023-03-01T02:47:22.072Z,63.85
2023-03-01T02:49:49.261Z,63.57
2023-03-01T02:52:34.758Z,63.11
2023-03-01T02:55:07.798Z,63.49
2023-03-01T02:57:38.875Z,63.55
2023-03-01T03:00:20.855Z,63.48
2023-03-01T03:02:54.017Z,63.60
2023-03-01T03:05:31.234Z,63.39
2023-03-01T03:08:00.858Z,63.51
2023-03-01T03:10:36.652Z,63.61
2023-03-01T03:13:11.073Z,63.55
2023-03-01T03:15:40.090Z,63.51
2023-03-01T03:18:12.162Z,63.71
2023-03-01T03:20:42.205Z,63.60
2023-03-01T03:23:09.850Z,63.77
2023-03-01T03:25:38.994Z,64.01
2023-03-01T03:28:10.990Z,64.13
2023-03-01T03:30:41.748Z,64.15
2023-03-01T03:33:13.156Z,63.78
2023-03-01T03:35:45.028Z,63.64
2023-03-01T03:38:17.942Z,63.76
2023-03-01T03:40:50.767Z,63.15
2023-03-01T03:43:22.148Z,63.65
2023-03-01T03:45:51.919Z,63.49
2023-03-01T03:48:20.122Z,63.36
2023-03-01T03:50:53.828Z,63.70
2023-03-01T03:53:23.382Z,63.98
2023-03-01T03:55:50.558Z,64.23
2023-03-01T03:58:20.714Z,64.18
2023-03-01T04:00:51.266Z,63.91
2023-03-01T04:03:21.002Z,63.75
2023-03-01T04:05:49.045Z,64.11
2023-03-01T04:08:16.215Z,64.24
2023-03-01T04:10:47.007Z,64.32
2023-03-01T04:13:21.527Z,64.25
2023-03-01T04:15:53.352Z,64.15
2023-03-01T04:18:23.129Z,64.53
2023-03-01T04:20:53.258Z,64.54
2023-03-01T04:23:21.905Z,64.79
2023-03-01T04:25:58.437Z,63.95
2023-03-01T04:28:35.660Z,64.65
2023-03-01T04:31:15.211Z,64.10
2023-03-01T04:34:03.476Z,64.39
2023-03-01T04:36:31.795Z,64.36
2023-03-01T04:38:59.155Z,64.29
2023-03-01T04:41:27.023Z,64.86
2023-03-01T04:43:54.456Z,64.31
2023-03-01T04:46:22.695Z,64.43
2023-03-01T04:48:49.985Z,65.08
2023-03-01T04:51:17.741Z,64.88
2023-03-01T04:53:45.606Z,64.94
2023-03-01T04:56:14.997Z,64.77
2023-03-01T04:58:42.610Z,64.95
2023-03-01T05:01:18.513Z,65.17
2023-03-01T05:03:52.456Z,64.68
2023-03-01T05:06:21.364Z,64.73
2023-03-01T05:08:48.684Z,64.91
2023-03-01T05:11:15.798Z,65.21
2023-03-01T05:13:43.334Z,65.12
2023-03-01T05:16:13.705Z,65.35
2023-03-01T05:18:42.416Z,65.50
2023-03-01T05:21:13.349Z,65.38
2023-03-01T05:23:40.757Z,65.58
2023-03-01T05:26:16.149Z,65.62
2023-03-01T05:28:49.790Z,65.69
2023-03-01T05:31:16.992Z,65.98
2023-03-01T05:33:44.518Z,65.65
2023-03-01T05:36:11.867Z,65.72
2023-03-01T05:38:38.940Z,65.60
2023-03-01T05:41:06.160Z,65.71
2023-03-01T05:43:35.023Z,65.73
2023-03-01T05:46:02.407Z,65.45
2023-03-01T05:48:30.618Z,65.43
2023-03-01T05:51:01.701Z,64.55
2023-03-01T05:53:28.952Z,64.52
2023-03-01T05:55:56.036Z,64.31
2023-03-01T05:58:23.102Z,63.85
2023-03-01T06:00:51.724Z,63.39
2023-03-01T06:03:19.606Z,62.94
2023-03-01T06:05:47.218Z,62.53
2023-03-01T06:08:14.831Z,62.39
2023-03-01T06:10:42.320Z,61.79
2023-03-01T06:13:09.832Z,61.47
2023-03-01T06:15:36.911Z,60.73
2023-03-01T06:18:04.336Z,59.98
2023-03-01T06:20:31.500Z,59.55
2023-03-01T06:22:58.848Z,59.36
2023-03-01T06:25:28.043Z,58.45
2023-03-01T06:27:55.722Z,57.94
2023-03-01T06:30:25.803Z,57.21
2023-03-01T06:32:53.701Z,56.53
2023-03-01T06:35:21.061Z,55.65
2023-03-01T06:37:49.127Z,55.28
2023-03-01T06:40:17.271Z,54.54
2023-03-01T06:42:50.767Z,54.06
2023-03-01T06:45:20.607Z,54.02
2023-03-01T06:47:48.224Z,53.23
2023-03-01T06:50:16.688Z,52.85
2023-03-01T06:55:14.417Z,51.70
2023-03-01T06:57:41.571Z,50.99
2023-03-01T07:00:09.683Z,50.04
2023-03-01T07:02:36.812Z,47.76
2023-03-01T07:05:04.086Z,44.96
2023-03-01T07:07:31.271Z,42.83
2023-03-01T07:09:58.354Z,41.34
2023-03-01T07:12:25.486Z,39.21
2023-03-01T07:14:52.553Z,37.52
2023-03-01T07:17:19.982Z,36.50
2023-03-01T07:19:46.995Z,34.66
2023-03-01T07:22:14.014Z,34.68
2023-03-01T07:24:43.019Z,33.58
2023-03-01T07:27:10.932Z,33.20
2023-03-01T07:29:38.300Z,31.99
2023-03-01T07:32:06.723Z,31.89
2023-03-01T07:34:33.894Z,31.08
2023-03-01T07:37:00.921Z,30.23
2023-03-01T07:39:28.043Z,29.97
2023-03-01T07:41:55.115Z,30.03
2023-03-01T07:44:22.369Z,29.36
2023-03-01T07:46:49.490Z,29.45
2023-03-01T07:49:16.482Z,28.59
2023-03-01T07:51:44.722Z,28.12
2023-03-01T07:54:11.710Z,28.20
2023-03-01T07:56:38.730Z,27.80
2023-03-01T07:59:05.765Z,27.42
2023-03-01T08:01:32.811Z,26.84
2023-03-01T08:03:59.879Z,27.06
2023-03-01T08:06:27.080Z,26.84
2023-03-01T08:08:56.383Z,26.88
2023-03-01T08:11:24.422Z,26.25
2023-03-01T08:13:53.086Z,25.91
2023-03-01T08:16:21.171Z,26.70
2023-03-01T08:18:48.380Z,25.97
2023-03-01T08:21:18.426Z,26.36
2023-03-01T08:23:45.825Z,25.96
2023-03-01T08:26:21.151Z,26.31
2023-03-01T08:28:50.022Z,26.25
2023-03-01T08:31:22.468Z,26.30
2023-03-01T08:33:56.405Z,26.35
2023-03-01T08:36:31.166Z,26.50
2023-03-01T08:38:59.383Z,26.51
2023-03-01T08:41:27.307Z,26.22
2023-03-01T08:43:59.739Z,26.56
2023-03-01T08:46:30.061Z,26.10
2023-03-01T08:48:57.819Z,26.06
2023-03-01T08:51:26.273Z,25.43
2023-03-01T08:53:53.776Z,25.66
2023-03-01T08:56:21.068Z,25.41
2023-03-01T08:58:49.913Z,25.52
2023-03-01T09:01:19.883Z,25.90
2023-03-01T09:03:47.824Z,26.21
2023-03-01T09:06:16.811Z,26.58
2023-03-01T09:08:47.488Z,26.54
2023-03-01T09:11:21.760Z,26.58
2023-03-01T09:13:50.014Z,26.08
2023-03-01T09:16:20.653Z,25.95
2023-03-01T09:18:55.039Z,26.15
2023-03-01T09:21:38.987Z,25.99
2023-03-01T09:24:14.510Z,25.98
2023-03-01T09:26:41.788Z,26.63
2023-03-01T09:29:10.598Z,26.84
2023-03-01T09:31:37.916Z,27.08
2023-03-01T09:34:05.185Z,26.91
2023-03-01T09:36:32.945Z,27.28
2023-03-01T09:39:01.134Z,26.89
2023-03-01T09:41:58.833Z,26.61
2023-03-01T09:44:47.363Z,26.52
2023-03-01T09:47:27.502Z,26.14
2023-03-01T09:50:21.939Z,26.02
2023-03-01T09:53:04.665Z,25.56
2023-03-01T09:55:39.150Z,25.29
2023-03-01T09:58:48.554Z,25.16
2023-03-01T10:01:54.601Z,24.36
2023-03-01T10:04:55.273Z,23.97
2023-03-01T10:07:47.633Z,24.39
2023-03-01T10:10:44.255Z,23.66
2023-03-01T10:13:45.928Z,23.73
2023-03-01T10:16:32.387Z,23.51
2023-03-01T10:19:06.123Z,23.01
2023-03-01T10:21:44.126Z,22.82
2023-03-01T10:24:20.073Z,23.15
2023-03-01T10:27:29.605Z,22.96
2023-03-01T10:30:35.754Z,22.71
2023-03-01T10:33:21.457Z,22.94
2023-03-01T10:35:49.564Z,22.56
2023-03-01T10:38:18.715Z,22.74
2023-03-01T10:41:16.587Z,22.20
2023-03-01T10:43:50.864Z,22.51
2023-03-01T10:46:33.911Z,22.45
2023-03-01T10:49:24.304Z,22.32
2023-03-01T10:51:54.479Z,22.03
2023-03-01T10:54:23.498Z,22.38
2023-03-01T10:56:57.892Z,23.03
2023-03-01T10:59:36.419Z,23.48
2023-03-01T11:02:29.289Z,24.25
2023-03-01T11:05:03.852Z,24.57
2023-03-01T11:07:31.029Z,24.58
2023-03-01T11:09:58.119Z,25.20
2023-03-01T11:12:26.850Z,25.36
2023-03-01T11:14:57.989Z,25.09
2023-03-01T11:17:39.031Z,25.27
2023-03-01T11:20:14.594Z,25.11
2023-03-01T11:22:56.077Z,24.92
2023-03-01T11:25:34.387Z,25.63
2023-03-01T11:28:05.148Z,25.40
2023-03-01T11:31:09.416Z,25.92
2023-03-01T11:34:00.702Z,26.47
2023-03-01T11:36:37.333Z,26.30
2023-03-01T11:39:51.522Z,27.00
2023-03-01T11:43:03.942Z,26.46
2023-03-01T11:45:53.101Z,26.19
2023-03-01T11:48:49.878Z,26.42
2023-03-01T11:52:01.015Z,26.74
2023-03-01T11:55:08.932Z,26.89
2023-03-01T11:57:54.919Z,27.76
2023-03-01T12:00:51.950Z,27.91
2023-03-01T12:04:12.657Z,28.13
2023-03-01T12:07:02.471Z,28.21
2023-03-01T12:09:48.852Z,27.54
2023-03-01T12:12:39.818Z,28.99
2023-03-01T12:16:02.350Z,29.11
2023-03-01T12:18:41.461Z,28.73
2023-03-01T12:21:25.711Z,29.00
2023-03-01T12:24:22.324Z,28.90
2023-03-01T12:27:36.585Z,29.80
2023-03-01T12:30:52.691Z,30.52
2023-03-01T12:33:37.342Z,30.93
2023-03-01T12:36:13.429Z,31.13
2023-03-01T12:39:28.410Z,31.59
2023-03-01T12:42:03.897Z,31.48
2023-03-01T12:44:44.636Z,32.39
2023-03-01T12:47:32.576Z,33.11
2023-03-01T12:50:07.106Z,33.44
2023-03-01T12:52:41.817Z,33.65
2023-03-01T12:55:36.592Z,33.35
2023-03-01T12:58:49.810Z,33.81
2023-03-01T13:01:22.890Z,33.92
2023-03-01T13:04:25.441Z,34.44
2023-03-01T13:07:26.630Z,34.52
2023-03-01T13:10:23.852Z,35.32
2023-03-01T13:12:52.583Z,35.77
2023-03-01T13:15:31.185Z,35.14
2023-03-01T13:18:12.628Z,35.44
2023-03-01T13:20:49.899Z,36.59
2023-03-01T13:23:23.000Z,36.70
2023-03-01T13:26:16.584Z,36.33
2023-03-01T13:28:47.470Z,37.13
2023-03-01T13:31:17.180Z,37.29
2023-03-01T13:33:52.883Z,37.36
2023-03-01T13:36:29.085Z,37.14
2023-03-01T13:39:33.430Z,37.70
2023-03-01T13:42:01.389Z,38.22
2023-03-01T13:44:39.724Z,38.27
2023-03-01T13:47:06.831Z,38.75
2023-03-01T13:50:00.949Z,38.60
2023-03-01T13:52:36.233Z,38.13
2023-03-01T13:55:48.348Z,38.87
2023-03-01T13:58:27.571Z,38.99
2023-03-01T14:01:05.265Z,39.33
2023-03-01T14:03:40.918Z,39.83
2023-03-01T14:06:20.885Z,39.63
2023-03-01T14:08:52.019Z,39.57
2023-03-01T14:12:03.451Z,39.92
2023-03-01T14:14:57.998Z,40.38
2023-03-01T14:17:52.411Z,40.20
2023-03-01T14:20:24.323Z,40.47
2023-03-01T14:22:59.366Z,40.78
2023-03-01T14:25:35.814Z,40.79
2023-03-01T14:28:31.534Z,40.78
2023-03-01T14:31:01.381Z,41.06
2023-03-01T14:33:35.028Z,41.15
2023-03-01T14:36:07.822Z,41.60
2023-03-01T14:38:48.648Z,41.70
2023-03-01T14:41:26.815Z,41.45
2023-03-01T14:44:02.353Z,42.18
2023-03-01T14:46:39.781Z,41.81
2023-03-01T14:49:21.809Z,42.43
2023-03-01T14:52:19.545Z,42.56
2023-03-01T14:54:54.254Z,42.63
2023-03-01T14:57:27.316Z,43.29
2023-03-01T14:59:59.265Z,43.29
2023-03-01T15:02:29.774Z,43.61
2023-03-01T15:05:08.067Z,43.75
2023-03-01T15:07:41.316Z,43.53
2023-03-01T15:10:26.794Z,43.58
2023-03-01T15:12:54.483Z,43.25
2023-03-01T15:15:37.784Z,44.06
2023-03-01T15:18:24.910Z,44.41
2023-03-01T15:20:52.824Z,44.88
2023-03-01T15:23:28.617Z,45.02
2023-03-01T15:25:57.666Z,45.22
2023-03-01T15:28:32.620Z,45.41
2023-03-01T15:31:28.406Z,45.82
2023-03-01T15:34:10.477Z,46.02
2023-03-01T15:36:51.530Z,46.49
2023-03-01T15:39:40.914Z,46.74
2023-03-01T15:42:17.695Z,47.05
2023-03-01T15:44:46.207Z,47.35
2023-03-01T15:47:32.862Z,47.65
2023-03-01T15:50:01.913Z,48.14
2023-03-01T15:52:43.712Z,48.03
2023-03-01T15:55:30.711Z,48.41
2023-03-01T15:58:03.785Z,48.18
2023-03-01T16:00:31.230Z,48.28
2023-03-01T16:02:58.405Z,48.78
2023-03-01T16:05:33.558Z,49.15
2023-03-01T16:08:01.588Z,49.25
2023-03-01T16:10:29.403Z,49.71
2023-03-01T16:12:56.460Z,49.76
2023-03-01T16:15:33.417Z,49.88
2023-03-01T16:18:01.143Z,49.74
2023-03-01T16:20:32.791Z,50.12
2023-03-01T16:23:08.209Z,50.69
2023-03-01T16:25:36.594Z,50.77
2023-03-01T16:28:09.701Z,50.96
2023-03-01T16:30:39.137Z,50.80
2023-03-01T16:33:24.196Z,51.15
2023-03-01T16:35:54.456Z,51.28
2023-03-01T16:38:21.740Z,51.48
2023-03-01T16:40:51.752Z,51.43
2023-03-01T16:43:18.874Z,51.59
2023-03-01T16:45:46.509Z,52.01
2023-03-01T16:48:13.928Z,51.96
2023-03-01T16:50:41.274Z,52.41
2023-03-01T16:53:08.607Z,52.41
2023-03-01T16:55:35.847Z,52.60
2023-03-01T16:58:03.550Z,52.71
2023-03-01T17:00:30.640Z,52.81
2023-03-01T17:02:59.045Z,52.94
2023-03-01T17:05:27.021Z,53.29
2023-03-01T17:07:56.678Z,52.91
2023-03-01T17:10:23.923Z,53.33
2023-03-01T17:12:51.358Z,53.16
2023-03-01T17:15:18.697Z,53.40
2023-03-01T17:17:45.820Z,53.65
2023-03-01T17:20:13.644Z,53.69
2023-03-01T17:22:40.689Z,53.93
2023-03-01T17:25:10.965Z,54.11
2023-03-01T17:27:39.972Z,54.34
2023-03-01T17:30:10.062Z,54.50
2023-03-01T17:32:37.406Z,55.09
2023-03-01T17:35:05.491Z,54.95
2023-03-01T17:37:32.694Z,55.37
2023-03-01T17:39:59.907Z,55.55
2023-03-01T17:42:26.945Z,55.74
2023-03-01T17:44:54.012Z,56.19
2023-03-01T17:47:21.351Z,56.05
2023-03-01T17:49:48.514Z,56.56
2023-03-01T17:52:15.762Z,56.47
2023-03-01T17:54:42.795Z,56.54
2023-03-01T17:57:09.842Z,56.80
2023-03-01T17:59:38.471Z,56.91
2023-03-01T18:02:05.604Z,57.04
2023-03-01T18:04:32.662Z,57.59
2023-03-01T18:07:00.069Z,57.46
2023-03-01T18:09:28.605Z,57.46
2023-03-01T18:11:55.817Z,57.87
2023-03-01T18:14:23.419Z,57.99
2023-03-01T18:16:50.784Z,58.27
2023-03-01T18:19:17.987Z,58.21
2023-03-01T18:21:44.985Z,58.68
2023-03-01T18:24:12.089Z,58.75
2023-03-01T18:26:40.189Z,58.95
2023-03-01T18:29:08.307Z,59.34
2023-03-01T18:31:35.611Z,59.17
2023-03-01T18:34:04.337Z,59.47
2023-03-01T18:36:35.545Z,59.23
2023-03-01T18:39:08.182Z,59.81
2023-03-01T18:41:36.692Z,60.04
2023-03-01T18:44:05.695Z,60.11
2023-03-01T18:46:36.117Z,60.32
2023-03-01T18:49:04.920Z,60.20
2023-03-01T18:51:32.559Z,60.48
2023-03-01T18:53:59.821Z,60.53
2023-03-01T18:56:31.420Z,60.71
2023-03-01T18:59:00.298Z,60.88
2023-03-01T19:01:31.063Z,61.05
2023-03-01T19:03:59.233Z,61.41
2023-03-01T19:06:33.287Z,61.51
2023-03-01T19:09:00.748Z,61.28
2023-03-01T19:11:30.976Z,61.49
2023-03-01T19:13:59.658Z,61.41
2023-03-01T19:16:30.704Z,61.60
2023-03-01T19:19:01.759Z,61.65
2023-03-01T19:21:31.767Z,61.88
2023-03-01T19:24:00.259Z,61.90
2023-03-01T19:26:31.239Z,62.46
2023-03-01T19:28:58.741Z,62.23
2023-03-01T19:31:29.942Z,62.76
2023-03-01T19:34:11.175Z,63.00
2023-03-01T19:36:42.726Z,63.27
2023-03-01T19:39:13.628Z,63.41
2023-03-01T19:41:41.727Z,63.26
2023-03-01T19:44:09.437Z,63.46
2023-03-01T19:46:36.910Z,63.39
2023-03-01T19:49:04.487Z,63.91
2023-03-01T19:51:33.522Z,63.98
2023-03-01T19:54:00.759Z,63.96
2023-03-01T19:56:27.814Z,63.85
2023-03-01T19:59:00.403Z,64.17
2023-03-01T20:01:29.910Z,64.26
2023-03-01T20:03:57.080Z,64.08
2023-03-01T20:06:25.705Z,64.48
2023-03-01T20:08:53.256Z,64.42
2023-03-01T20:11:21.231Z,64.91
2023-03-01T20:13:48.388Z,65.06
2023-03-01T20:16:20.248Z,64.86
2023-03-01T20:18:47.693Z,64.93
2023-03-01T20:21:24.008Z,65.22
2023-03-01T20:23:52.773Z,65.24
2023-03-01T20:26:20.981Z,65.65
2023-03-01T20:28:50.803Z,65.44
2023-03-01T20:31:20.603Z,65.46
2023-03-01T20:33:48.440Z,65.45
2023-03-01T20:36:16.503Z,65.86
2023-03-01T20:38:43.790Z,65.99
2023-03-01T20:41:13.337Z,66.15
2023-03-01T20:43:42.624Z,66.50
2023-03-01T20:46:13.082Z,66.61
2023-03-01T20:48:43.528Z,66.57
2023-03-01T20:51:12.584Z,66.73
2023-03-01T20:53:40.013Z,66.66
2023-03-01T20:56:11.658Z,66.61
2023-03-01T20:58:39.526Z,66.41
2023-03-01T21:01:08.242Z,67.12
2023-03-01T21:03:36.023Z,67.33
2023-03-01T21:06:06.351Z,67.23
2023-03-01T21:08:34.923Z,67.06
2023-03-01T21:11:02.796Z,67.67
2023-03-01T21:13:31.468Z,67.61
2023-03-01T21:16:07.929Z,68.04
2023-03-01T21:18:36.983Z,67.33
2023-03-01T21:21:08.850Z,67.85
2023-03-01T21:23:38.592Z,67.71
2023-03-01T21:26:15.806Z,68.00
2023-03-01T21:28:43.967Z,68.21
2023-03-01T21:31:24.447Z,68.86
2023-03-01T21:33:57.180Z,69.02
2023-03-01T21:36:27.295Z,68.88
2023-03-01T21:38:55.247Z,68.88
2023-03-01T21:41:29.519Z,69.05
2023-03-01T21:44:00.862Z,69.12
2023-03-01T21:46:32.499Z,69.68
2023-03-01T21:48:59.920Z,69.56
2023-03-01T21:51:27.932Z,69.86
2023-03-01T21:53:56.305Z,70.03
2023-03-01T21:56:28.424Z,69.97
2023-03-01T21:58:57.039Z,70.37
2023-03-01T22:01:29.927Z,70.20
2023-03-01T22:04:00.353Z,70.12
2023-03-01T22:06:40.664Z,70.49
2023-03-01T22:09:13.722Z,70.55
2023-03-01T22:11:48.883Z,70.69
2023-03-01T22:14:18.683Z,70.82
2023-03-01T22:16:47.848Z,70.83
2023-03-01T22:19:16.999Z,71.46
2023-03-01T22:21:49.597Z,71.14
2023-03-01T22:24:19.918Z,71.50
2023-03-01T22:26:48.849Z,71.54
2023-03-01T22:29:20.948Z,71.32
2023-03-01T22:31:48.559Z,71.50
2023-03-01T22:34:17.311Z,71.53
2023-03-01T22:36:45.683Z,71.64
2023-03-01T22:39:16.491Z,71.60
2023-03-01T22:41:46.611Z,71.57
2023-03-01T22:44:22.259Z,71.48
2023-03-01T22:46:50.025Z,71.54
2023-03-01T22:49:18.576Z,71.63
2023-03-01T22:51:47.718Z,71.62
2023-03-01T22:54:15.817Z,71.92
2023-03-01T22:56:43.297Z,71.87
2023-03-01T22:59:15.823Z,71.96
2023-03-01T23:01:46.411Z,72.42
2023-03-01T23:04:15.174Z,72.31
2023-03-01T23:06:54.064Z,72.51
2023-03-01T23:09:33.035Z,73.02
2023-03-01T23:12:02.593Z,72.89
2023-03-01T23:14:31.871Z,73.31
2023-03-01T23:17:01.552Z,72.71
2023-03-01T23:19:30.252Z,73.08
2023-03-01T23:21:58.070Z,73.23
2023-03-01T23:24:31.624Z,73.44
2023-03-01T23:27:02.090Z,73.80
2023-03-01T23:29:29.699Z,73.66
2023-03-01T23:31:58.238Z,73.76
2023-03-01T23:34:26.390Z,73.88
2023-03-01T23:36:54.744Z,74.08
2023-03-01T23:39:23.064Z,73.79
2023-03-01T23:41:50.274Z,73.86
2023-03-01T23:44:19.985Z,74.20
2023-03-01T23:46:49.112Z,74.06
2023-03-01T23:49:19.760Z,73.88
2023-03-01T23:51:47.983Z,73.85
2023-03-01T23:54:19.350Z,74.48
2023-03-01T23:56:46.903Z,74.13
2023-03-01T23:59:21.950Z,74.62
